createdAt,value
2023-03-01T00:02:32.362Z,28.90
2023-03-01T00:05:34.752Z,27.20
2023-03-01T00:08:37.440Z,26.45
2023-03-01T00:11:40.159Z,29.15
2023-03-01T00:14:42.589Z,27.13
2023-03-01T00:17:45.001Z,52.72
2023-03-01T00:20:54.160Z,27.75
2023-03-01T00:23:56.922Z,23.17
2023-03-01T00:26:59.631Z,25.08
2023-03-01T00:30:02.791Z,23.40
2023-03-01T00:33:05.168Z,21.95
2023-03-01T00:36:08.233Z,20.77
2023-03-01T00:39:15.775Z,22.50
2023-03-01T00:42:18.826Z,21.33
2023-03-01T00:45:21.219Z,22.23
2023-03-01T00:48:23.547Z,21.65
2023-03-01T00:51:28.156Z,18.75
2023-03-01T00:54:33.115Z,18.02
2023-03-01T00:57:35.919Z,11.98
2023-03-01T01:00:38.422Z,15.27
2023-03-01T01:03:40.776Z,15.80
2023-03-01T01:06:47.753Z,13.63
2023-03-01T01:09:50.086Z,17.70
2023-03-01T01:12:53.036Z,11.30
2023-03-01T01:15:55.390Z,15.90
2023-03-01T01:18:58.738Z,14.53
2023-03-01T01:22:01.028Z,20.67
2023-03-01T01:25:03.442Z,19.33
2023-03-01T01:28:06.006Z,22.88
2023-03-01T01:31:08.957Z,15.15
2023-03-01T01:34:17.420Z,12.50
2023-03-01T01:37:19.852Z,15.73
2023-03-01T01:40:22.318Z,20.05
2023-03-01T01:43:30.296Z,18.45
2023-03-01T01:46:41.046Z,22.23
2023-03-01T01:49:46.695Z,21.08
2023-03-01T01:52:50.490Z,17.17
2023-03-01T01:59:03.202Z,21.48
2023-03-01T02:02:06.227Z,22.27
2023-03-01T02:05:22.579Z,19.17
2023-03-01T02:08:28.148Z,21.42
2023-03-01T02:11:33.172Z,25.85
2023-03-01T02:14:35.707Z,26.73
2023-03-01T02:17:38.680Z,29.98
2023-03-01T02:21:07.308Z,28.35
2023-03-01T02:24:24.473Z,30.58
2023-03-01T02:27:34.488Z,33.67
2023-03-01T02:30:37.621Z,30.35
2023-03-01T02:33:40.832Z,23.80
2023-03-01T02:36:49.069Z,26.20
2023-03-01T02:39:54.839Z,27.65
2023-03-01T02:43:00.571Z,29.05
2023-03-01T02:46:08.918Z,25.48
2023-03-01T02:49:20.685Z,24.48
2023-03-01T02:52:47.504Z,25.27
2023-03-01T02:55:50.241Z,31.60
2023-03-01T02:58:54.201Z,21.20
2023-03-01T03:01:57.241Z,26.00
2023-03-01T03:05:00.709Z,31.65
2023-03-01T03:08:04.592Z,26.73
2023-03-01T03:11:11.302Z,25.67
2023-03-01T03:14:16.004Z,26.25
2023-03-01T03:17:21.151Z,23.17
2023-03-01T03:20:26.299Z,27.63
2023-03-01T03:23:30.547Z,28.33
2023-03-01T03:26:33.533Z,28.33
2023-03-01T03:29:36.045Z,29.83
2023-03-01T03:32:38.387Z,26.08
2023-03-01T03:35:44.248Z,26.15
2023-03-01T03:38:47.011Z,28.33
2023-03-01T03:41:49.311Z,34.33
2023-03-01T03:44:51.616Z,29.80
2023-03-01T03:47:54.013Z,28.25
2023-03-01T03:50:57.652Z,29.20
2023-03-01T03:54:00.108Z,30.95
2023-03-01T03:57:02.534Z,31.75
2023-03-01T04:00:06.477Z,27.95
2023-03-01T04:03:16.702Z,29.50
2023-03-01T04:06:18.986Z,28.98
2023-03-01T04:09:21.365Z,30.08
2023-03-01T04:12:24.165Z,30.50
2023-03-01T04:15:28.118Z,25.80
2023-03-01T04:18:32.617Z,31.63
2023-03-01T04:21:34.941Z,32.75
2023-03-01T04:24:37.606Z,29.85
2023-03-01T04:27:39.854Z,28.98
2023-03-01T04:30:42.532Z,32.95
2023-03-01T04:33:47.216Z,32.25
2023-03-01T04:36:49.651Z,27.38
2023-03-01T04:39:52.497Z,27.75
2023-03-01T04:42:55.302Z,20.70
2023-03-01T04:46:03.947Z,31.15
2023-03-01T04:49:06.485Z,25.75
2023-03-01T04:52:08.982Z,33.75
2023-03-01T04:55:12.532Z,30.88
2023-03-01T04:58:15.056Z,26.85
2023-03-01T05:01:19.966Z,28.35
2023-03-01T05:04:22.559Z,28.98
2023-03-01T05:07:25.953Z,26.65
2023-03-01T05:10:34.735Z,34.25
2023-03-01T05:13:41.108Z,51.10
2023-03-01T05:16:43.848Z,46.63
2023-03-01T05:19:47.282Z,30.33
2023-03-01T05:22:50.149Z,36.17
2023-03-01T05:25:53.440Z,33.03
2023-03-01T05:29:00.300Z,34.92
2023-03-01T05:32:04.133Z,38.05
2023-03-01T05:35:07.004Z,30.70
2023-03-01T05:38:10.374Z,22.63
2023-03-01T05:41:18.194Z,27.52
2023-03-01T05:44:20.739Z,28.77
2023-03-01T05:47:23.125Z,29.73
2023-03-01T05:50:28.327Z,23.27
2023-03-01T05:53:30.942Z,22.92
2023-03-01T05:56:37.203Z,28.00
2023-03-01T05:59:39.497Z,28.80
2023-03-01T06:02:42.254Z,20.88
2023-03-01T06:05:45.651Z,21.10
2023-03-01T06:08:48.043Z,26.13
2023-03-01T06:11:50.421Z,46.03
2023-03-01T06:14:52.884Z,34.47
2023-03-01T06:18:00.114Z,27.33
2023-03-01T06:21:02.893Z,29.60
2023-03-01T06:24:07.126Z,32.50
2023-03-01T06:27:09.644Z,31.25
2023-03-01T06:30:13.631Z,29.55
2023-03-01T06:33:16.017Z,29.30
2023-03-01T06:36:19.794Z,21.35
2023-03-01T06:39:22.473Z,22.08
2023-03-01T06:42:24.831Z,24.30
2023-03-01T06:45:27.134Z,26.30
2023-03-01T06:48:29.428Z,24.05
2023-03-01T06:51:31.801Z,26.40
2023-03-01T06:54:34.107Z,24.85
2023-03-01T06:57:36.777Z,23.05
2023-03-01T07:00:41.893Z,26.70
2023-03-01T07:03:45.453Z,23.92
2023-03-01T07:06:55.278Z,25.75
2023-03-01T07:09:57.687Z,26.73
2023-03-01T07:13:00.219Z,30.30
2023-03-01T07:16:02.639Z,27.83
2023-03-01T07:19:06.435Z,33.30
2023-03-01T07:22:11.535Z,34.63
2023-03-01T07:25:14.022Z,26.55
2023-03-01T07:28:16.295Z,29.88
2023-03-01T07:31:18.629Z,23.05
2023-03-01T07:34:21.039Z,26.52
2023-03-01T07:37:23.478Z,26.30
2023-03-01T07:40:25.813Z,24.70
2023-03-01T07:43:29.138Z,23.88
2023-03-01T07:46:31.825Z,28.52
2023-03-01T07:49:34.480Z,30.25
2023-03-01T07:52:36.796Z,28.70
2023-03-01T07:55:39.109Z,25.23
2023-03-01T07:58:43.351Z,24.17
2023-03-01T08:01:45.798Z,24.73
2023-03-01T08:04:48.248Z,27.13
2023-03-01T08:07:50.589Z,24.63
2023-03-01T08:10:52.986Z,21.17
2023-03-01T08:13:55.920Z,22.50
2023-03-01T08:16:58.493Z,21.33
2023-03-01T08:20:00.884Z,22.88
2023-03-01T08:23:03.192Z,25.17
2023-03-01T08:26:13.389Z,25.73
2023-03-01T08:29:15.793Z,30.45
2023-03-01T08:32:18.281Z,23.17
2023-03-01T08:35:22.077Z,27.15
2023-03-01T08:38:24.607Z,23.30
2023-03-01T08:41:27.633Z,24.85
2023-03-01T08:44:30.285Z,23.00
2023-03-01T08:47:34.579Z,21.40
2023-03-01T08:50:37.374Z,31.20
2023-03-01T08:53:40.505Z,24.27
2023-03-01T08:56:43.344Z,24.15
2023-03-01T08:59:45.773Z,27.73
2023-03-01T09:02:48.048Z,26.80
2023-03-01T09:05:51.398Z,27.60
2023-03-01T09:08:54.436Z,21.38
2023-03-01T09:11:56.784Z,16.60
2023-03-01T09:14:59.296Z,21.70
2023-03-01T09:18:02.098Z,23.48
2023-03-01T09:21:15.856Z,25.55
2023-03-01T09:24:18.263Z,24.48
2023-03-01T09:27:20.771Z,24.80
2023-03-01T09:30:23.587Z,24.35
2023-03-01T09:33:25.905Z,22.08
2023-03-01T09:36:28.697Z,24.88
2023-03-01T09:39:31.420Z,16.38
2023-03-01T09:42:37.717Z,30.27
2023-03-01T09:45:43.755Z,23.13
2023-03-01T09:49:07.314Z,20.20
2023-03-01T09:52:37.567Z,18.00
2023-03-01T09:56:07.060Z,24.38
2023-03-01T09:59:15.472Z,22.92
2023-03-01T10:02:28.696Z,21.50
2023-03-01T10:05:40.005Z,20.92
2023-03-01T10:08:45.271Z,26.70
2023-03-01T10:11:53.434Z,21.48
2023-03-01T10:15:01.317Z,22.90
2023-03-01T10:18:08.938Z,22.67
2023-03-01T10:21:17.845Z,25.00
2023-03-01T10:24:22.723Z,19.48
2023-03-01T10:27:38.286Z,29.05
2023-03-01T10:30:43.463Z,20.95
2023-03-01T10:33:45.992Z,19.15
2023-03-01T10:36:53.198Z,31.80
2023-03-01T10:39:57.433Z,24.65
2023-03-01T10:43:01.714Z,23.63
2023-03-01T10:46:04.152Z,23.70
2023-03-01T10:49:15.003Z,20.42
2023-03-01T10:52:23.007Z,20.60
2023-03-01T10:55:45.746Z,23.00
2023-03-01T10:59:05.804Z,20.60
2023-03-01T11:02:23.444Z,27.45
2023-03-01T11:05:29.567Z,21.10
2023-03-01T11:08:53.084Z,16.73
2023-03-01T11:11:59.797Z,19.02
2023-03-01T11:15:03.501Z,18.42
2023-03-01T11:18:14.058Z,21.95
2023-03-01T11:21:17.519Z,18.73
2023-03-01T11:24:21.462Z,19.17
2023-03-01T11:27:28.606Z,20.88
2023-03-01T11:30:36.018Z,21.15
2023-03-01T11:34:00.864Z,17.75
2023-03-01T11:37:09.361Z,17.88
2023-03-01T11:40:13.389Z,20.17
2023-03-01T11:43:34.619Z,18.05
2023-03-01T11:46:46.452Z,17.73
2023-03-01T11:50:18.047Z,17.70
2023-03-01T11:53:26.266Z,24.23
2023-03-01T11:56:35.066Z,18.15
2023-03-01T11:59:55.901Z,14.50
2023-03-01T12:02:58.130Z,10.48
2023-03-01T12:06:34.075Z,25.63
2023-03-01T12:10:05.379Z,9.70
2023-03-01T12:13:33.723Z,10.05
2023-03-01T12:17:00.483Z,11.88
2023-03-01T12:20:20.859Z,9.60
2023-03-01T12:23:39.103Z,9.43
2023-03-01T12:26:56.165Z,10.57
2023-03-01T12:30:26.558Z,8.65
2023-03-01T12:33:51.561Z,15.48
2023-03-01T12:36:56.584Z,12.13
2023-03-01T12:40:01.673Z,11.07
2023-03-01T12:43:22.750Z,15.68
2023-03-01T12:46:43.619Z,14.00
2023-03-01T12:50:05.604Z,10.32
2023-03-01T12:53:21.914Z,12.73
2023-03-01T12:56:30.359Z,12.23
2023-03-01T12:59:43.436Z,14.48
2023-03-01T13:02:48.456Z,11.27
2023-03-01T13:06:19.444Z,10.30
2023-03-01T13:09:31.995Z,11.10
2023-03-01T13:12:47.654Z,10.07
2023-03-01T13:15:52.372Z,9.95
2023-03-01T13:19:17.678Z,7.95
2023-03-01T13:22:29.195Z,7.00
2023-03-01T13:25:34.763Z,7.88
2023-03-01T13:28:50.070Z,9.10
2023-03-01T13:31:52.399Z,7.93
2023-03-01T13:35:06.010Z,7.47
2023-03-01T13:38:45.623Z,8.45
2023-03-01T13:41:53.124Z,9.43
2023-03-01T13:44:55.831Z,16.00
2023-03-01T13:48:05.924Z,17.40
2023-03-01T13:51:12.885Z,13.68
2023-03-01T13:54:16.989Z,13.00
2023-03-01T13:57:24.224Z,8.90
2023-03-01T14:00:37.428Z,8.77
2023-03-01T14:03:44.553Z,7.18
2023-03-01T14:06:46.900Z,13.48
2023-03-01T14:09:53.866Z,8.35
2023-03-01T14:13:31.462Z,12.77
2023-03-01T14:17:17.305Z,36.58
2023-03-01T14:20:23.482Z,14.00
2023-03-01T14:23:27.369Z,8.85
2023-03-01T14:26:29.959Z,17.83
2023-03-01T14:29:38.158Z,12.00
2023-03-01T14:32:40.566Z,15.75
2023-03-01T14:35:42.906Z,11.48
2023-03-01T14:38:48.300Z,8.20
2023-03-01T14:41:52.209Z,52.15
2023-03-01T14:44:56.107Z,24.58
2023-03-01T14:48:01.574Z,8.30
2023-03-01T14:51:06.828Z,6.90
2023-03-01T14:54:31.893Z,17.08
2023-03-01T14:57:34.375Z,14.93
2023-03-01T15:00:37.226Z,22.73
2023-03-01T15:03:44.959Z,77.72
2023-03-01T15:06:47.403Z,12.85
2023-03-01T15:09:49.808Z,12.27
2023-03-01T15:12:53.999Z,10.63
2023-03-01T15:16:10.170Z,20.73
2023-03-01T15:19:17.774Z,10.38
2023-03-01T15:22:20.032Z,13.57
2023-03-01T15:25:29.825Z,16.73
2023-03-01T15:28:44.700Z,16.15
2023-03-01T15:32:06.124Z,15.15
2023-03-01T15:35:49.130Z,12.73
2023-03-01T15:38:57.813Z,23.40
2023-03-01T15:42:01.141Z,16.50
2023-03-01T15:45:21.912Z,57.10
2023-03-01T15:48:27.373Z,26.15
2023-03-01T15:51:38.044Z,39.00
2023-03-01T15:54:41.983Z,35.75
2023-03-01T15:57:44.477Z,34.95
2023-03-01T16:01:00.313Z,57.50
2023-03-01T16:04:04.540Z,116.43
2023-03-01T16:07:07.546Z,87.03
2023-03-01T16:10:10.311Z,65.95
2023-03-01T16:13:14.009Z,35.75
2023-03-01T16:16:17.572Z,45.55
2023-03-01T16:19:20.326Z,40.15
2023-03-01T16:22:26.431Z,48.30
2023-03-01T16:25:29.470Z,43.08
2023-03-01T16:28:32.128Z,32.22
2023-03-01T16:31:35.245Z,34.65
2023-03-01T16:34:38.031Z,38.20
2023-03-01T16:37:41.328Z,27.67
2023-03-01T16:40:49.202Z,29.85
2023-03-01T16:43:52.881Z,24.13
2023-03-01T16:46:55.482Z,65.72
2023-03-01T16:49:57.786Z,53.95
2023-03-01T16:53:00.189Z,40.22
2023-03-01T16:56:02.706Z,33.47
2023-03-01T16:59:06.390Z,37.03
2023-03-01T17:02:14.300Z,28.75
2023-03-01T17:05:17.103Z,32.08
2023-03-01T17:08:19.902Z,35.53
2023-03-01T17:11:22.625Z,38.80
2023-03-01T17:14:25.526Z,33.15
2023-03-01T17:17:28.601Z,25.75
2023-03-01T17:20:31.199Z,25.63
2023-03-01T17:23:34.641Z,32.13
2023-03-01T17:26:37.377Z,33.00
2023-03-01T17:29:41.918Z,31.52
2023-03-01T17:32:45.018Z,33.50
2023-03-01T17:35:47.940Z,33.93
2023-03-01T17:38:51.211Z,33.47
2023-03-01T17:41:54.341Z,34.42
2023-03-01T17:44:57.921Z,29.63
2023-03-01T17:48:00.438Z,26.67
2023-03-01T17:51:07.686Z,33.05
2023-03-01T17:54:10.265Z,32.20
2023-03-01T17:57:13.640Z,41.05
2023-03-01T18:00:17.281Z,35.03
2023-03-01T18:03:21.694Z,46.22
2023-03-01T18:06:25.964Z,39.75
2023-03-01T18:09:29.244Z,36.30
2023-03-01T18:12:33.101Z,36.78
2023-03-01T18:15:36.122Z,40.97
2023-03-01T18:18:39.751Z,36.28
2023-03-01T18:21:42.387Z,38.10
2023-03-01T18:24:45.702Z,34.03
2023-03-01T18:27:48.371Z,34.08
2023-03-01T18:30:57.262Z,31.00
2023-03-01T18:34:01.553Z,34.33
2023-03-01T18:37:09.531Z,35.35
2023-03-01T18:40:14.225Z,32.30
2023-03-01T18:43:16.935Z,29.48
2023-03-01T18:46:23.665Z,33.28
2023-03-01T18:49:27.553Z,33.20
2023-03-01T18:52:30.057Z,36.95
2023-03-01T18:55:36.624Z,30.90
2023-03-01T18:58:39.316Z,32.85
2023-03-01T19:01:41.735Z,34.00
2023-03-01T19:04:44.150Z,31.00
2023-03-01T19:07:46.728Z,36.03
2023-03-01T19:10:59.888Z,37.85
2023-03-01T19:14:04.038Z,42.13
2023-03-01T19:17:06.561Z,40.08
2023-03-01T19:20:09.554Z,36.78
2023-03-01T19:23:13.616Z,26.63
2023-03-01T19:26:18.575Z,40.20
2023-03-01T19:29:23.225Z,47.38
2023-03-01T19:32:26.918Z,55.50
2023-03-01T19:35:29.973Z,60.85
2023-03-01T19:38:33.060Z,58.50
2023-03-01T19:41:37.025Z,45.13
2023-03-01T19:44:40.542Z,62.97
2023-03-01T19:47:43.046Z,59.17
2023-03-01T19:50:45.503Z,64.28
2023-03-01T19:53:51.097Z,61.35
2023-03-01T19:56:53.530Z,58.00
2023-03-01T19:59:55.971Z,54.03
2023-03-01T20:02:58.372Z,63.67
2023-03-01T20:06:02.700Z,59.92
2023-03-01T20:09:19.295Z,59.42
2023-03-01T20:12:23.231Z,53.92
2023-03-01T20:15:25.869Z,57.15
2023-03-01T20:18:28.935Z,55.65
2023-03-01T20:21:33.402Z,54.33
2023-03-01T20:24:38.970Z,49.20
2023-03-01T20:27:41.370Z,53.60
2023-03-01T20:30:44.367Z,51.15
2023-03-01T20:33:46.775Z,37.33
2023-03-01T20:36:49.309Z,47.80
2023-03-01T20:39:51.725Z,43.67
2023-03-01T20:42:57.665Z,47.70
2023-03-01T20:46:05.868Z,53.70
2023-03-01T20:49:08.410Z,57.47
2023-03-01T20:52:10.954Z,59.42
2023-03-01T20:55:13.410Z,61.47
2023-03-01T20:58:15.742Z,52.03
2023-03-01T21:01:21.824Z,49.22
2023-03-01T21:04:24.763Z,50.25
2023-03-01T21:07:27.227Z,48.38
2023-03-01T21:10:31.148Z,46.72
2023-03-01T21:13:34.142Z,51.80
2023-03-01T21:16:37.127Z,48.87
2023-03-01T21:19:43.701Z,47.93
2023-03-01T21:22:46.054Z,44.65
2023-03-01T21:25:48.450Z,50.08
2023-03-01T21:28:56.941Z,48.97
2023-03-01T21:31:59.337Z,52.78
2023-03-01T21:35:01.727Z,51.97
2023-03-01T21:38:04.029Z,48.05
2023-03-01T21:41:18.131Z,72.68
2023-03-01T21:44:20.446Z,57.80
2023-03-01T21:47:22.804Z,54.58
2023-03-01T21:50:25.126Z,57.33
2023-03-01T21:53:29.360Z,58.00
2023-03-01T21:56:34.639Z,57.78
2023-03-01T21:59:37.352Z,54.30
2023-03-01T22:02:39.657Z,55.67
2023-03-01T22:05:42.072Z,48.13
2023-03-01T22:08:48.152Z,49.05
2023-03-01T22:11:54.497Z,50.30
2023-03-01T22:14:56.760Z,48.92
2023-03-01T22:17:59.053Z,51.70
2023-03-01T22:21:08.396Z,46.28
2023-03-01T22:24:11.622Z,44.35
2023-03-01T22:27:13.904Z,41.95
2023-03-01T22:30:16.527Z,39.20
2023-03-01T22:33:18.799Z,38.45
2023-03-01T22:36:21.125Z,37.55
2023-03-01T22:39:23.451Z,44.75
2023-03-01T22:42:25.787Z,44.40
2023-03-01T22:45:32.546Z,64.55
2023-03-01T22:48:34.976Z,85.65
2023-03-01T22:51:39.611Z,101.57
2023-03-01T22:54:41.943Z,83.20
2023-03-01T22:57:44.237Z,57.72
2023-03-01T23:00:46.497Z,44.35
2023-03-01T23:03:49.462Z,41.95
2023-03-01T23:06:54.040Z,38.17
2023-03-01T23:09:57.472Z,40.67
2023-03-01T23:12:59.862Z,29.88
2023-03-01T23:16:02.130Z,39.65
2023-03-01T23:19:07.243Z,41.35
2023-03-01T23:22:09.495Z,41.42
2023-03-01T23:25:15.167Z,44.75
2023-03-01T23:28:17.538Z,50.50
2023-03-01T23:31:20.024Z,46.30
2023-03-01T23:34:22.308Z,52.40
2023-03-01T23:37:30.728Z,83.40
2023-03-01T23:40:33.024Z,67.97
2023-03-01T23:43:35.292Z,51.75
2023-03-01T23:46:38.058Z,52.03
2023-03-01T23:49:40.376Z,50.67
2023-03-01T23:52:42.789Z,47.80
2023-03-01T23:55:54.840Z,42.17
2023-03-01T23:58:59.914Z,49.88
